createdAt,value
2018-12-18T00:38:01.348Z,67.60
2018-12-18T00:40:46.222Z,69.30
2018-12-18T00:43:33.948Z,67.70
2018-12-18T00:46:17.992Z,67.80
2018-12-18T00:49:08.178Z,67.70
2018-12-18T00:51:49.817Z,67.10
2018-12-18T00:54:31.331Z,67.80
2018-12-18T01:15:15.228Z,65.50
2018-12-18T01:17:58.969Z,65.60
2018-12-18T01:20:42.094Z,65.60
2018-12-18T01:23:28.030Z,66.40
2018-12-18T01:26:16.330Z,68.80
2018-12-18T01:28:59.205Z,67.90
2018-12-18T01:31:43.250Z,65.90
2018-12-18T01:52:28.907Z,65.10
2018-12-18T01:55:10.232Z,67.40
2018-12-18T01:57:59.146Z,65.10
2018-12-18T02:00:40.781Z,70.80
2018-12-18T02:03:23.527Z,67.70
2018-12-18T02:06:10.359Z,65.30
2018-12-18T02:08:55.072Z,66.60
2018-12-18T02:11:40.040Z,67.90
2018-12-18T02:32:28.170Z,65.90
2018-12-18T02:35:15.563Z,64.00
2018-12-18T02:41:01.198Z,66.70
2018-12-18T02:43:53.276Z,66.70
2018-12-18T02:46:39.169Z,66.50
2018-12-18T02:49:29.353Z,64.30
2018-12-18T03:10:15.421Z,63.50
2018-12-18T03:13:05.826Z,63.50
2018-12-18T03:15:49.310Z,62.90
2018-12-18T03:18:34.274Z,60.60
2018-12-18T03:21:17.371Z,65.20
2018-12-18T03:24:02.401Z,63.00
2018-12-18T03:26:46.111Z,63.50
2018-12-18T03:29:37.177Z,60.90
2018-12-18T03:50:25.956Z,62.40
2018-12-18T03:53:10.439Z,62.10
2018-12-18T03:55:55.018Z,62.30
2018-12-18T03:58:36.865Z,62.20
2018-12-18T04:01:21.508Z,61.20
2018-12-18T04:04:07.108Z,60.90
2018-12-18T04:06:56.662Z,59.90
2018-12-18T04:27:50.079Z,58.90
2018-12-18T04:30:41.468Z,59.30
2018-12-18T04:33:30.470Z,59.80
2018-12-18T04:36:15.129Z,64.80
2018-12-18T04:39:00.141Z,65.80
2018-12-18T04:41:44.479Z,62.90
2018-12-18T04:44:35.864Z,61.60
2018-12-18T04:47:22.648Z,59.50
2018-12-18T05:06:36.496Z,59.10
2018-12-18T05:09:24.264Z,60.30
2018-12-18T05:12:08.968Z,60.50
2018-12-18T05:14:52.050Z,59.80
2018-12-18T05:17:35.186Z,60.30
2018-12-18T05:20:17.460Z,59.40
2018-12-18T05:23:05.162Z,59.40
2018-12-18T05:25:47.322Z,58.10
2018-12-18T05:46:35.527Z,59.10
2018-12-18T05:49:23.228Z,60.00
2018-12-18T05:52:07.004Z,58.40
2018-12-18T05:55:02.541Z,58.20
2018-12-18T05:57:46.491Z,58.80
2018-12-18T06:00:32.014Z,59.10
2018-12-18T06:03:22.505Z,59.90
2018-12-18T06:06:09.335Z,59.80
2018-12-18T06:26:52.304Z,60.30
2018-12-18T06:29:37.271Z,57.80
2018-12-18T06:32:20.397Z,59.50
2018-12-18T06:35:10.466Z,58.10
2018-12-18T06:37:56.474Z,58.00
2018-12-18T06:40:44.570Z,58.50
2018-12-18T06:43:34.098Z,58.20
2018-12-18T07:04:22.599Z,59.30
2018-12-18T07:07:05.080Z,57.70
2018-12-18T07:09:50.967Z,57.30
2018-12-18T07:12:35.649Z,57.30
2018-12-18T07:15:18.452Z,59.20
2018-12-18T07:18:00.302Z,59.70
2018-12-18T07:20:43.426Z,58.70
2018-12-18T07:23:26.665Z,58.30
2018-12-18T07:44:16.670Z,58.70
2018-12-18T07:49:50.561Z,58.30
2018-12-18T07:52:34.277Z,58.20
2018-12-18T07:55:17.360Z,57.70
2018-12-18T07:57:59.566Z,58.00
2018-12-18T08:00:49.486Z,58.20
2018-12-18T08:21:33.315Z,57.40
2018-12-18T08:24:24.112Z,58.90
2018-12-18T08:27:12.692Z,58.40
2018-12-18T08:29:58.351Z,58.70
2018-12-18T08:32:41.232Z,58.60
2018-12-18T08:35:36.629Z,58.20
2018-12-18T08:38:22.479Z,58.80
2018-12-18T08:41:07.445Z,58.40
2018-12-18T09:01:51.628Z,58.00
2018-12-18T09:04:43.486Z,58.10
2018-12-18T09:07:33.677Z,59.50
2018-12-18T09:10:21.683Z,59.20
2018-12-18T09:13:12.419Z,59.70
2018-12-18T09:16:05.088Z,57.60
2018-12-18T09:18:52.456Z,58.50
2018-12-18T09:39:38.707Z,60.80
2018-12-18T09:45:18.594Z,61.80
2018-12-18T09:48:08.473Z,60.80
2018-12-18T09:50:53.713Z,61.30
2018-12-18T09:53:47.666Z,60.10
2018-12-18T09:56:58.721Z,61.20
2018-12-18T10:17:51.131Z,61.40
2018-12-18T10:20:32.689Z,63.40
2018-12-18T10:23:28.443Z,62.10
2018-12-18T10:26:14.380Z,60.50
2018-12-18T10:28:58.425Z,61.70
2018-12-18T10:31:42.423Z,60.40
2018-12-18T10:34:28.359Z,62.30
2018-12-18T10:55:10.905Z,61.70
2018-12-18T10:57:55.615Z,60.40
2018-12-18T11:00:41.550Z,60.70
2018-12-18T11:06:16.338Z,62.40
2018-12-18T11:09:02.562Z,61.30
2018-12-18T11:11:49.104Z,60.70
2018-12-18T11:14:42.729Z,63.10
2018-12-18T11:35:31.810Z,62.40
2018-12-18T11:38:20.815Z,62.10
2018-12-18T11:41:08.721Z,61.40
2018-12-18T11:43:55.808Z,65.20
2018-12-18T11:46:41.119Z,61.60
2018-12-18T11:49:27.800Z,60.60
2018-12-18T11:52:15.757Z,60.00
2018-12-18T12:13:05.722Z,60.00
2018-12-18T12:15:56.816Z,61.30
2018-12-18T12:18:44.136Z,60.80
2018-12-18T12:21:28.606Z,61.00
2018-12-18T12:24:14.190Z,60.80
2018-12-18T12:27:03.835Z,61.80
2018-12-18T12:29:49.303Z,61.80
2018-12-18T12:32:36.733Z,62.10
2018-12-18T12:50:21.671Z,62.60
2018-12-18T12:52:58.079Z,63.30
2018-12-18T12:55:40.514Z,63.60
2018-12-18T12:58:19.588Z,62.90
2018-12-18T13:00:57.249Z,63.10
2018-12-18T13:03:37.137Z,63.50
2018-12-18T13:06:14.250Z,63.40
2018-12-18T13:08:51.473Z,63.30
2018-12-18T13:11:28.616Z,64.70
2018-12-18T13:14:05.604Z,63.70
2018-12-18T13:16:44.617Z,63.50
2018-12-18T13:19:30.148Z,62.60
2018-12-18T13:22:09.155Z,62.50
2018-12-18T13:24:46.530Z,62.60
2018-12-18T13:27:23.801Z,62.60
2018-12-18T13:30:06.546Z,62.70
2018-12-18T13:32:43.604Z,63.20
2018-12-18T13:35:21.805Z,63.40
2018-12-18T13:38:02.312Z,63.40
2018-12-18T13:40:43.807Z,63.20
2018-12-18T13:43:22.573Z,63.30
2018-12-18T13:45:59.542Z,63.80
2018-12-18T13:48:35.872Z,63.50
2018-12-18T13:51:14.314Z,63.70
2018-12-18T13:53:52.766Z,63.50
2018-12-18T13:56:31.913Z,62.70
2018-12-18T13:59:09.234Z,62.90
2018-12-18T14:01:48.905Z,62.80
2018-12-18T14:04:27.054Z,62.90
2018-12-18T14:07:04.848Z,63.20
2018-12-18T14:11:13.997Z,63.20
2018-12-18T14:14:01.133Z,63.30
2018-12-18T14:16:37.622Z,63.20
2018-12-18T14:19:16.872Z,63.10
2018-12-18T14:21:56.343Z,62.90
2018-12-18T14:24:35.052Z,62.60
2018-12-18T14:27:13.591Z,62.50
2018-12-18T14:29:52.238Z,62.20
2018-12-18T14:32:31.362Z,62.40
2018-12-18T14:35:11.976Z,62.80
2018-12-18T14:37:50.200Z,62.30
2018-12-18T14:40:32.219Z,62.20
2018-12-18T14:43:11.251Z,61.90
2018-12-18T14:45:49.916Z,62.10
2018-12-18T14:48:26.633Z,62.60
2018-12-18T14:51:08.046Z,62.70
2018-12-18T14:53:45.889Z,62.30
2018-12-18T14:56:24.282Z,61.90
2018-12-18T14:59:09.122Z,62.00
2018-12-18T15:01:49.799Z,62.00
2018-12-18T15:04:30.577Z,62.10
2018-12-18T15:07:14.877Z,62.40
2018-12-18T15:10:01.605Z,62.20
2018-12-18T15:12:42.508Z,62.40
2018-12-18T15:15:25.879Z,62.50
2018-12-18T15:18:03.761Z,62.70
2018-12-18T15:20:43.352Z,62.60
2018-12-18T15:23:22.178Z,62.70
2018-12-18T15:25:59.664Z,62.60
2018-12-18T15:28:39.966Z,62.60
2018-12-18T15:31:27.081Z,62.80
2018-12-18T15:34:05.896Z,63.00
2018-12-18T15:36:43.787Z,62.80
2018-12-18T15:39:21.115Z,62.70
2018-12-18T15:41:59.564Z,63.20
2018-12-18T15:44:38.979Z,62.90
2018-12-18T15:47:16.595Z,62.70
2018-12-18T15:49:54.210Z,62.70
2018-12-18T15:52:31.629Z,62.70
2018-12-18T15:55:09.050Z,62.80
2018-12-18T15:57:50.731Z,62.70
2018-12-18T16:00:28.756Z,62.80
2018-12-18T16:03:07.447Z,62.90
2018-12-18T16:05:45.260Z,63.10
2018-12-18T16:08:23.338Z,63.00
2018-12-18T16:11:03.012Z,63.10
2018-12-18T16:13:40.841Z,63.30
2018-12-18T16:16:20.549Z,63.20
2018-12-18T16:18:57.514Z,63.40
2018-12-18T16:21:34.713Z,63.50
2018-12-18T16:24:13.142Z,63.50
2018-12-18T16:26:52.450Z,63.60
2018-12-18T16:29:31.033Z,63.50
2018-12-18T16:32:11.318Z,63.60
2018-12-18T16:34:49.416Z,63.50
2018-12-18T16:37:30.209Z,64.00
2018-12-18T16:40:07.178Z,63.70
2018-12-18T16:42:44.151Z,63.40
2018-12-18T16:45:21.967Z,63.30
2018-12-18T16:47:59.142Z,63.20
2018-12-18T16:50:35.785Z,63.10
2018-12-18T16:53:12.535Z,63.30
2018-12-18T16:55:49.473Z,63.40
2018-12-18T16:58:27.910Z,63.50
2018-12-18T17:01:04.812Z,63.80
2018-12-18T17:03:43.561Z,64.10
2018-12-18T17:06:21.017Z,64.10
2018-12-18T17:08:58.925Z,63.80
2018-12-18T17:11:38.057Z,63.80
2018-12-18T17:14:14.380Z,63.60
2018-12-18T17:16:51.313Z,63.70
2018-12-18T17:19:28.859Z,63.80
2018-12-18T17:22:05.175Z,63.80
2018-12-18T17:24:42.503Z,63.80
2018-12-18T17:27:19.822Z,64.00
2018-12-18T17:29:57.323Z,64.20
2018-12-18T17:32:33.852Z,64.20
2018-12-18T17:35:12.163Z,64.30
2018-12-18T17:37:48.936Z,64.20
2018-12-18T17:40:25.757Z,64.10
2018-12-18T17:43:01.800Z,64.20
2018-12-18T17:45:38.478Z,64.10
2018-12-18T17:48:16.351Z,64.30
2018-12-18T17:50:53.034Z,64.40
2018-12-18T17:53:29.922Z,64.00
2018-12-18T17:56:08.102Z,63.90
2018-12-18T17:58:46.923Z,63.70
2018-12-18T18:01:25.998Z,63.50
2018-12-18T18:04:03.394Z,63.20
2018-12-18T18:06:40.052Z,62.70
2018-12-18T18:09:16.949Z,62.50
2018-12-18T18:11:54.032Z,62.40
2018-12-18T18:14:29.792Z,63.50
2018-12-18T18:17:06.739Z,62.70
2018-12-18T18:19:44.049Z,62.50
2018-12-18T18:22:21.652Z,62.40
2018-12-18T18:24:58.522Z,62.70
2018-12-18T18:27:36.908Z,62.70
2018-12-18T18:30:13.621Z,62.70
2018-12-18T18:32:50.707Z,62.90
2018-12-18T18:35:26.765Z,62.90
2018-12-18T18:38:03.865Z,63.00
2018-12-18T18:40:40.917Z,63.00
2018-12-18T18:43:19.142Z,62.80
2018-12-18T18:45:56.133Z,63.00
2018-12-18T18:48:32.682Z,63.30
2018-12-18T18:51:08.652Z,63.10
2018-12-18T18:53:44.688Z,63.30
2018-12-18T18:56:21.685Z,63.10
2018-12-18T18:58:58.435Z,63.30
2018-12-18T19:01:34.922Z,63.70
2018-12-18T19:04:12.533Z,63.20
2018-12-18T19:06:53.108Z,63.20
2018-12-18T19:09:29.235Z,62.30
2018-12-18T19:12:05.476Z,63.20
2018-12-18T19:17:22.064Z,63.30
2018-12-18T19:19:58.283Z,63.40
2018-12-18T19:22:35.650Z,63.20
2018-12-18T19:25:11.344Z,63.30
2018-12-18T19:27:49.585Z,63.60
2018-12-18T19:30:26.615Z,63.10
2018-12-18T19:33:02.983Z,62.90
2018-12-18T19:35:40.455Z,63.40
2018-12-18T19:38:17.318Z,63.50
2018-12-18T19:40:56.594Z,62.80
2018-12-18T19:43:34.265Z,62.60
2018-12-18T19:46:12.067Z,62.90
2018-12-18T19:48:49.494Z,62.70
2018-12-18T19:51:26.436Z,63.20
2018-12-18T19:54:02.610Z,63.20
2018-12-18T19:56:41.236Z,63.70
2018-12-18T19:59:17.445Z,63.70
2018-12-18T20:01:54.750Z,64.20
2018-12-18T20:04:33.881Z,64.20
2018-12-18T20:07:11.849Z,64.70
2018-12-18T20:09:48.563Z,65.00
2018-12-18T20:12:26.027Z,65.00
2018-12-18T20:15:02.591Z,65.10
2018-12-18T20:17:40.249Z,65.50
2018-12-18T20:20:17.236Z,65.40
2018-12-18T20:22:54.377Z,65.30
2018-12-18T20:25:31.458Z,65.00
2018-12-18T20:28:08.781Z,65.40
2018-12-18T20:30:44.792Z,65.40
2018-12-18T20:33:22.245Z,65.10
2018-12-18T20:35:59.361Z,65.00
2018-12-18T20:38:37.494Z,65.30
2018-12-18T20:41:14.646Z,65.30
2018-12-18T20:43:52.489Z,65.40
2018-12-18T20:46:28.889Z,65.70
2018-12-18T20:49:06.829Z,65.10
2018-12-18T20:51:44.163Z,65.00
2018-12-18T20:54:20.854Z,64.90
2018-12-18T20:56:57.257Z,65.30
2018-12-18T20:59:33.254Z,65.10
2018-12-18T21:02:08.944Z,64.80
2018-12-18T21:04:45.909Z,64.30
2018-12-18T21:07:23.297Z,64.40
2018-12-18T21:10:00.773Z,64.90
2018-12-18T21:12:37.781Z,64.60
2018-12-18T21:15:15.986Z,64.70
2018-12-18T21:17:53.780Z,64.70
2018-12-18T21:23:15.661Z,65.00
2018-12-18T21:27:15.998Z,64.80
2018-12-18T21:29:52.975Z,64.10
2018-12-18T21:32:30.298Z,63.70
2018-12-18T21:35:07.398Z,64.00
2018-12-18T21:37:46.122Z,63.00
2018-12-18T21:40:24.004Z,62.30
2018-12-18T21:43:01.603Z,62.50
2018-12-18T21:45:38.295Z,63.30
2018-12-18T21:48:15.097Z,62.40
2018-12-18T21:50:52.079Z,62.50
2018-12-18T21:53:28.749Z,62.30
2018-12-18T21:56:05.738Z,62.10
2018-12-18T21:58:41.687Z,62.40
2018-12-18T22:01:19.271Z,62.40
2018-12-18T22:03:56.051Z,62.30
2018-12-18T22:06:37.382Z,62.50
2018-12-18T22:09:15.374Z,62.50
2018-12-18T22:11:51.187Z,62.40
2018-12-18T22:14:28.342Z,62.40
2018-12-18T22:17:05.032Z,62.40
2018-12-18T22:19:41.528Z,62.40
2018-12-18T22:22:17.613Z,62.80
2018-12-18T22:24:54.181Z,62.80
2018-12-18T22:27:31.701Z,62.50
2018-12-18T22:30:08.908Z,62.50
2018-12-18T22:32:47.243Z,62.90
2018-12-18T22:35:24.312Z,63.50
2018-12-18T22:38:01.509Z,63.60
2018-12-18T22:40:38.237Z,63.40
2018-12-18T22:43:16.479Z,63.50
2018-12-18T22:45:53.412Z,63.60
2018-12-18T22:48:30.848Z,63.70
2018-12-18T22:51:07.420Z,63.90
2018-12-18T22:53:44.691Z,64.00
2018-12-18T22:56:21.012Z,63.90
2018-12-18T22:58:58.665Z,64.10
2018-12-18T23:01:46.719Z,63.90
2018-12-18T23:04:24.171Z,63.80
2018-12-18T23:07:01.229Z,63.30
2018-12-18T23:09:38.209Z,63.20
2018-12-18T23:12:15.501Z,63.20
2018-12-18T23:14:52.799Z,63.50
2018-12-18T23:17:29.891Z,63.70
2018-12-18T23:20:06.233Z,63.80
2018-12-18T23:22:46.835Z,63.80
2018-12-18T23:25:23.229Z,64.10
2018-12-18T23:28:02.551Z,64.10
2018-12-18T23:30:38.491Z,65.70
2018-12-18T23:33:16.398Z,66.40
2018-12-18T23:35:53.413Z,67.40
2018-12-18T23:38:30.280Z,65.60
2018-12-18T23:41:07.282Z,65.40
2018-12-18T23:43:44.851Z,65.30
2018-12-18T23:46:21.893Z,65.30
2018-12-18T23:48:59.407Z,65.40
2018-12-18T23:51:36.367Z,65.60
2018-12-18T23:54:14.732Z,66.10
2018-12-18T23:56:51.598Z,66.20
2018-12-18T23:59:28.025Z,66.40
